createdAt,value
2023-03-16T00:00:22.442Z,24.35
2023-03-16T00:01:22.428Z,24.34
2023-03-16T00:02:22.478Z,24.34
2023-03-16T00:03:22.453Z,24.33
2023-03-16T00:04:22.414Z,24.35
2023-03-16T00:05:22.427Z,24.35
2023-03-16T00:06:25.182Z,24.33
2023-03-16T00:07:22.395Z,24.33
2023-03-16T00:08:22.375Z,24.34
2023-03-16T00:09:22.389Z,24.35
2023-03-16T00:10:22.393Z,24.34
2023-03-16T00:11:22.360Z,24.34
2023-03-16T00:12:22.364Z,24.33
2023-03-16T00:13:22.348Z,24.34
2023-03-16T00:14:22.323Z,24.33
2023-03-16T00:15:22.349Z,24.33
2023-03-16T00:16:22.333Z,24.33
2023-03-16T00:17:22.341Z,24.33
2023-03-16T00:18:22.329Z,24.33
2023-03-16T00:19:22.309Z,24.32
2023-03-16T00:20:22.281Z,24.31
2023-03-16T00:21:22.292Z,24.32
2023-03-16T00:22:22.310Z,24.32
2023-03-16T00:23:22.317Z,24.32
2023-03-16T00:24:22.263Z,24.32
2023-03-16T00:25:22.293Z,24.32
2023-03-16T00:26:22.247Z,24.32
2023-03-16T00:27:22.265Z,24.32
2023-03-16T00:28:22.225Z,24.32
2023-03-16T00:29:22.229Z,24.32
2023-03-16T00:30:22.248Z,24.31
2023-03-16T00:31:22.292Z,24.32
2023-03-16T00:32:22.233Z,24.31
2023-03-16T00:33:22.211Z,24.33
2023-03-16T00:34:22.196Z,24.31
2023-03-16T00:35:22.203Z,24.32
2023-03-16T00:36:22.187Z,24.32
2023-03-16T00:37:22.272Z,24.31
2023-03-16T00:38:22.187Z,24.31
2023-03-16T00:39:22.162Z,24.31
2023-03-16T00:40:22.202Z,24.30
2023-03-16T00:41:22.263Z,24.30
2023-03-16T00:42:22.348Z,24.31
2023-03-16T00:43:22.404Z,24.30
2023-03-16T00:44:22.475Z,24.31
2023-03-16T00:45:22.570Z,24.30
2023-03-16T00:46:22.688Z,24.30
2023-03-16T00:47:22.705Z,24.29
2023-03-16T00:48:22.771Z,24.30
2023-03-16T00:49:22.831Z,24.30
2023-03-16T00:50:22.891Z,24.30
2023-03-16T00:51:22.970Z,24.30
2023-03-16T00:52:23.028Z,24.30
2023-03-16T00:53:23.068Z,24.30
2023-03-16T00:54:23.136Z,24.29
2023-03-16T00:55:23.159Z,24.30
2023-03-16T00:56:23.210Z,24.29
2023-03-16T00:57:23.274Z,24.30
2023-03-16T00:58:23.319Z,24.29
2023-03-16T00:59:23.353Z,24.29
2023-03-16T01:00:23.467Z,24.29
2023-03-16T01:01:23.497Z,24.29
2023-03-16T01:02:23.794Z,24.29
2023-03-16T01:03:23.690Z,24.29
2023-03-16T01:04:23.648Z,24.29
2023-03-16T01:05:23.719Z,24.29
2023-03-16T01:06:23.750Z,24.30
2023-03-16T01:07:23.831Z,24.29
2023-03-16T01:08:23.864Z,24.28
2023-03-16T01:09:23.952Z,24.29
2023-03-16T01:10:23.980Z,24.28
2023-03-16T01:11:24.060Z,24.29
2023-03-16T01:12:24.119Z,24.29
2023-03-16T01:13:24.201Z,24.28
2023-03-16T01:14:24.268Z,24.28
2023-03-16T01:15:24.311Z,24.29
2023-03-16T01:16:24.386Z,24.29
2023-03-16T01:17:24.426Z,24.28
2023-03-16T01:18:24.478Z,24.28
2023-03-16T01:19:24.548Z,24.28
2023-03-16T01:20:24.623Z,24.27
2023-03-16T01:21:24.680Z,24.27
2023-03-16T01:22:24.749Z,24.28
2023-03-16T01:23:24.801Z,24.28
2023-03-16T01:24:24.865Z,24.29
2023-03-16T01:25:24.871Z,24.28
2023-03-16T01:26:24.949Z,24.28
2023-03-16T01:27:25.019Z,24.29
2023-03-16T01:28:25.038Z,24.28
2023-03-16T01:29:25.105Z,24.29
2023-03-16T01:30:25.457Z,24.28
2023-03-16T01:31:25.237Z,24.28
2023-03-16T01:32:25.296Z,24.27
2023-03-16T01:33:25.352Z,24.27
2023-03-16T01:34:25.372Z,24.27
2023-03-16T01:35:25.456Z,24.27
2023-03-16T01:36:25.513Z,24.27
2023-03-16T01:37:25.553Z,24.27
2023-03-16T01:38:25.602Z,24.28
2023-03-16T01:39:25.653Z,24.27
2023-03-16T01:40:25.878Z,24.27
2023-03-16T01:41:25.716Z,24.26
2023-03-16T01:42:25.805Z,24.26
2023-03-16T01:43:25.870Z,24.27
2023-03-16T01:44:25.904Z,24.27
2023-03-16T01:45:25.973Z,24.26
2023-03-16T01:46:26.077Z,24.26
2023-03-16T01:47:26.085Z,24.26
2023-03-16T01:48:26.160Z,24.26
2023-03-16T01:49:26.258Z,24.26
2023-03-16T01:50:26.493Z,24.27
2023-03-16T01:51:26.332Z,24.27
2023-03-16T01:52:26.395Z,24.26
2023-03-16T01:53:26.467Z,24.26
2023-03-16T01:54:26.529Z,24.26
2023-03-16T01:55:26.594Z,24.25
2023-03-16T01:56:26.684Z,24.25
2023-03-16T01:57:26.714Z,24.24
2023-03-16T01:58:26.759Z,24.24
2023-03-16T01:59:26.830Z,24.24
2023-03-16T02:00:27.225Z,24.24
2023-03-16T02:01:26.986Z,24.25
2023-03-16T02:02:27.074Z,24.25
2023-03-16T02:03:27.065Z,24.25
2023-03-16T02:04:27.179Z,24.25
2023-03-16T02:05:27.178Z,24.26
2023-03-16T02:06:27.230Z,24.25
2023-03-16T02:07:27.287Z,24.25
2023-03-16T02:08:27.398Z,24.25
2023-03-16T02:09:27.437Z,24.25
2023-03-16T02:10:27.707Z,24.25
2023-03-16T02:11:27.537Z,24.25
2023-03-16T02:12:27.599Z,24.24
2023-03-16T02:13:27.650Z,24.25
2023-03-16T02:14:27.699Z,24.25
2023-03-16T02:15:27.779Z,24.25
2023-03-16T02:16:27.807Z,24.25
2023-03-16T02:17:27.926Z,24.25
2023-03-16T02:18:27.961Z,24.24
2023-03-16T02:19:28.002Z,24.25
2023-03-16T02:20:28.226Z,24.24
2023-03-16T02:21:28.166Z,24.24
2023-03-16T02:22:28.191Z,24.24
2023-03-16T02:23:28.243Z,24.24
2023-03-16T02:24:28.295Z,24.24
2023-03-16T02:25:28.315Z,24.24
2023-03-16T02:26:28.350Z,24.24
2023-03-16T02:27:28.420Z,24.23
2023-03-16T02:28:28.479Z,24.24
2023-03-16T02:29:28.504Z,24.25
2023-03-16T02:30:28.784Z,24.25
2023-03-16T02:31:28.607Z,24.25
2023-03-16T02:32:28.632Z,24.27
2023-03-16T02:33:28.620Z,24.28
2023-03-16T02:34:28.630Z,24.29
2023-03-16T02:35:28.724Z,24.31
2023-03-16T02:36:28.689Z,24.33
2023-03-16T02:37:28.738Z,24.36
2023-03-16T02:38:28.775Z,24.37
2023-03-16T02:39:28.853Z,24.40
2023-03-16T02:40:29.223Z,24.41
2023-03-16T02:41:28.926Z,24.43
2023-03-16T02:42:29.012Z,24.44
2023-03-16T02:43:29.020Z,24.46
2023-03-16T02:44:29.040Z,24.48
2023-03-16T02:45:29.100Z,24.50
2023-03-16T02:46:29.235Z,24.52
2023-03-16T02:47:29.188Z,24.53
2023-03-16T02:48:29.206Z,24.54
2023-03-16T02:49:29.221Z,24.56
2023-03-16T02:50:29.604Z,24.57
2023-03-16T02:51:29.283Z,24.58
2023-03-16T02:52:29.295Z,24.59
2023-03-16T02:53:29.319Z,24.61
2023-03-16T02:54:29.299Z,24.63
2023-03-16T02:55:29.381Z,24.64
2023-03-16T02:56:29.391Z,24.66
2023-03-16T02:57:29.391Z,24.67
2023-03-16T02:58:29.416Z,24.68
2023-03-16T02:59:29.410Z,24.70
2023-03-16T03:00:29.795Z,24.70
2023-03-16T03:01:29.499Z,24.72
2023-03-16T03:02:29.522Z,24.74
2023-03-16T03:03:29.649Z,24.75
2023-03-16T03:04:29.629Z,24.77
2023-03-16T03:05:29.683Z,24.78
2023-03-16T03:06:29.727Z,24.79
2023-03-16T03:07:29.761Z,24.81
2023-03-16T03:08:29.783Z,24.83
2023-03-16T03:09:29.772Z,24.85
2023-03-16T03:10:29.954Z,24.85
2023-03-16T03:11:29.765Z,24.86
2023-03-16T03:12:29.793Z,24.87
2023-03-16T03:13:29.801Z,24.89
2023-03-16T03:14:29.793Z,24.91
2023-03-16T03:15:29.813Z,24.92
2023-03-16T03:16:29.897Z,24.93
2023-03-16T03:17:29.814Z,24.94
2023-03-16T03:18:29.862Z,24.95
2023-03-16T03:19:29.829Z,24.95
2023-03-16T03:20:30.322Z,24.97
2023-03-16T03:21:29.863Z,24.99
2023-03-16T03:22:29.880Z,25.00
2023-03-16T03:23:29.917Z,25.01
2023-03-16T03:24:29.905Z,25.02
2023-03-16T03:25:29.939Z,25.02
2023-03-16T03:26:29.974Z,25.03
2023-03-16T03:27:30.028Z,25.04
2023-03-16T03:28:30.024Z,25.05
2023-03-16T03:29:30.051Z,25.05
2023-03-16T03:30:30.236Z,25.06
2023-03-16T03:31:30.183Z,25.07
2023-03-16T03:32:30.173Z,25.08
2023-03-16T03:33:30.235Z,25.09
2023-03-16T03:34:30.251Z,25.10
2023-03-16T03:35:30.323Z,25.11
2023-03-16T03:36:30.325Z,25.12
2023-03-16T03:37:31.075Z,25.13
2023-03-16T03:38:30.404Z,25.14
2023-03-16T04:02:31.800Z,25.26
2023-03-16T04:03:31.874Z,25.26
2023-03-16T04:04:31.818Z,25.27
2023-03-16T04:05:31.854Z,25.28
2023-03-16T04:06:31.948Z,25.29
2023-03-16T04:07:31.990Z,25.29
2023-03-16T04:08:32.058Z,25.29
2023-03-16T04:09:32.122Z,25.28
2023-03-16T04:10:32.161Z,25.28
2023-03-16T04:11:32.214Z,25.28
2023-03-16T04:12:32.284Z,25.29
2023-03-16T04:13:32.316Z,25.29
2023-03-16T04:14:32.381Z,25.30
2023-03-16T04:15:32.435Z,25.32
2023-03-16T04:16:32.554Z,25.32
2023-03-16T04:17:32.692Z,25.33
2023-03-16T04:18:32.636Z,25.33
2023-03-16T04:19:32.645Z,25.33
2023-03-16T04:20:32.749Z,25.34
2023-03-16T04:21:32.816Z,25.33
2023-03-16T04:22:32.848Z,25.35
2023-03-16T04:23:32.897Z,25.35
2023-03-16T04:24:32.945Z,25.35
2023-03-16T04:25:33.014Z,25.35
2023-03-16T04:26:33.069Z,25.36
2023-03-16T04:27:33.140Z,25.35
2023-03-16T04:28:33.182Z,25.37
2023-03-16T04:29:33.252Z,25.36
2023-03-16T04:30:33.301Z,25.37
2023-03-16T04:31:33.507Z,25.37
2023-03-16T04:32:33.437Z,25.37
2023-03-16T04:33:33.443Z,25.38
2023-03-16T04:34:33.535Z,25.38
2023-03-16T04:35:33.605Z,25.37
2023-03-16T04:36:33.638Z,25.37
2023-03-16T04:37:33.697Z,25.37
2023-03-16T04:38:33.766Z,25.36
2023-03-16T04:39:33.804Z,25.37
2023-03-16T04:40:33.865Z,25.37
2023-03-16T04:41:33.923Z,25.35
2023-03-16T04:42:33.967Z,25.35
2023-03-16T04:43:34.032Z,25.35
2023-03-16T04:44:34.067Z,25.35
2023-03-16T04:45:34.136Z,25.35
2023-03-16T04:46:34.260Z,25.34
2023-03-16T04:47:34.272Z,25.35
2023-03-16T04:48:34.335Z,25.34
2023-03-16T04:49:34.380Z,25.34
2023-03-16T04:50:34.455Z,25.34
2023-03-16T04:51:34.497Z,25.34
2023-03-16T04:52:34.600Z,25.34
2023-03-16T04:53:34.639Z,25.34
2023-03-16T04:54:34.719Z,25.34
2023-03-16T04:55:34.755Z,25.33
2023-03-16T04:56:34.834Z,25.34
2023-03-16T04:57:34.860Z,25.33
2023-03-16T04:58:34.997Z,25.33
2023-03-16T04:59:35.018Z,25.32
2023-03-16T05:00:35.049Z,25.32
2023-03-16T05:01:35.176Z,25.32
2023-03-16T05:02:35.211Z,25.32
2023-03-16T05:03:35.250Z,25.31
2023-03-16T05:04:35.314Z,25.31
2023-03-16T05:05:35.508Z,25.30
2023-03-16T05:06:35.422Z,25.30
2023-03-16T05:07:35.486Z,25.30
2023-03-16T05:08:35.601Z,25.29
2023-03-16T05:09:35.605Z,25.28
2023-03-16T05:10:35.664Z,25.28
2023-03-16T05:11:35.717Z,25.27
2023-03-16T05:12:35.778Z,25.27
2023-03-16T05:13:35.853Z,25.26
2023-03-16T05:14:35.894Z,25.26
2023-03-16T05:15:36.049Z,25.26
2023-03-16T05:16:36.024Z,25.25
2023-03-16T05:17:36.064Z,25.25
2023-03-16T05:18:36.145Z,25.25
2023-03-16T05:19:36.217Z,25.25
2023-03-16T05:20:36.260Z,25.24
2023-03-16T05:21:36.332Z,25.25
2023-03-16T05:22:36.355Z,25.24
2023-03-16T05:23:36.436Z,25.24
2023-03-16T05:24:36.495Z,25.24
2023-03-16T05:25:36.561Z,25.23
2023-03-16T05:26:37.263Z,25.23
2023-03-16T05:27:36.692Z,25.22
2023-03-16T05:28:36.717Z,25.23
2023-03-16T05:29:36.787Z,25.23
2023-03-16T05:30:36.864Z,25.22
2023-03-16T05:31:36.911Z,25.22
2023-03-16T05:32:36.954Z,25.22
2023-03-16T05:33:36.990Z,25.22
2023-03-16T05:34:37.047Z,25.22
2023-03-16T05:35:37.091Z,25.21
2023-03-16T05:36:37.152Z,25.21
2023-03-16T05:37:37.175Z,25.21
2023-03-16T05:38:37.225Z,25.21
2023-03-16T05:39:37.264Z,25.20
2023-03-16T05:40:37.404Z,25.20
2023-03-16T05:41:37.353Z,25.21
2023-03-16T05:42:37.431Z,25.21
2023-03-16T05:43:37.486Z,25.21
2023-03-16T05:44:37.508Z,25.21
2023-03-16T05:45:37.553Z,25.21
2023-03-16T05:46:37.675Z,25.21
2023-03-16T05:47:37.651Z,25.21
2023-03-16T05:48:37.689Z,25.21
2023-03-16T05:49:37.767Z,25.21
2023-03-16T05:50:37.827Z,25.21
2023-03-16T05:51:37.826Z,25.21
2023-03-16T05:52:37.903Z,25.21
2023-03-16T05:53:37.957Z,25.21
2023-03-16T05:54:37.979Z,25.21
2023-03-16T05:55:38.029Z,25.21
2023-03-16T05:56:38.165Z,25.21
2023-03-16T05:57:38.108Z,25.22
2023-03-16T05:58:38.143Z,25.21
2023-03-16T05:59:38.206Z,25.21
2023-03-16T06:00:38.251Z,25.22
2023-03-16T06:01:45.298Z,25.22
2023-03-16T06:02:38.305Z,25.21
2023-03-16T06:03:38.298Z,25.21
2023-03-16T06:04:38.242Z,25.21
2023-03-16T06:05:38.222Z,25.22
2023-03-16T06:06:38.204Z,25.22
2023-03-16T06:07:38.240Z,25.22
2023-03-16T06:08:38.227Z,25.23
2023-03-16T06:09:38.238Z,25.23
2023-03-16T06:10:38.198Z,25.24
2023-03-16T06:11:38.186Z,25.25
2023-03-16T06:12:38.211Z,25.26
2023-03-16T06:13:38.226Z,25.27
2023-03-16T06:14:38.162Z,25.28
2023-03-16T06:15:38.182Z,25.27
2023-03-16T06:16:38.260Z,25.23
2023-03-16T06:17:38.153Z,25.21
2023-03-16T06:18:38.144Z,25.19
2023-03-16T06:19:38.146Z,25.18
2023-03-16T06:20:38.171Z,25.17
2023-03-16T06:21:38.236Z,25.17
2023-03-16T06:22:38.127Z,25.17
2023-03-16T06:23:38.095Z,25.16
2023-03-16T06:24:38.136Z,25.16
2023-03-16T06:25:40.601Z,25.16
2023-03-16T06:26:38.286Z,25.16
2023-03-16T06:27:38.268Z,25.16
2023-03-16T06:28:38.309Z,25.16
2023-03-16T06:29:38.382Z,25.17
2023-03-16T06:30:38.281Z,25.18
2023-03-16T06:31:38.397Z,25.20
2023-03-16T06:32:38.318Z,25.20
2023-03-16T06:33:38.296Z,25.22
2023-03-16T06:34:39.610Z,25.23
2023-03-16T06:35:38.377Z,25.23
2023-03-16T06:36:38.317Z,25.24
2023-03-16T06:37:38.341Z,25.25
2023-03-16T06:38:38.477Z,25.26
2023-03-16T06:39:38.682Z,25.26
2023-03-16T06:40:38.377Z,25.27
2023-03-16T06:41:38.355Z,25.29
2023-03-16T06:42:38.339Z,25.30
2023-03-16T06:43:38.371Z,25.32
2023-03-16T06:44:38.686Z,25.35
2023-03-16T06:45:38.524Z,25.36
2023-03-16T06:46:45.353Z,25.35
2023-03-16T06:47:38.388Z,25.38
2023-03-16T06:48:38.443Z,25.37
2023-03-16T06:49:38.397Z,25.37
2023-03-16T06:50:38.364Z,25.37
2023-03-16T06:51:38.349Z,25.37
2023-03-16T06:52:38.368Z,25.34
2023-03-16T06:53:38.404Z,25.33
2023-03-16T06:54:38.378Z,25.35
2023-03-16T06:55:38.342Z,25.38
2023-03-16T06:56:38.372Z,25.41
2023-03-16T06:57:38.338Z,25.46
2023-03-16T06:58:38.340Z,25.52
2023-03-16T06:59:38.777Z,25.60
2023-03-16T07:00:38.291Z,25.68
2023-03-16T07:01:38.294Z,25.76
2023-03-16T07:02:38.355Z,25.86
2023-03-16T07:03:38.293Z,25.93
2023-03-16T07:04:38.779Z,26.00
2023-03-16T07:05:38.303Z,26.07
2023-03-16T07:06:38.313Z,26.14
2023-03-16T07:07:38.281Z,26.20
2023-03-16T07:08:38.275Z,26.27
2023-03-16T07:09:41.058Z,26.33
2023-03-16T07:10:38.751Z,26.39
2023-03-16T07:11:38.240Z,26.45
2023-03-16T07:12:38.212Z,26.49
2023-03-16T07:13:38.209Z,26.53
2023-03-16T07:14:38.208Z,26.55
2023-03-16T07:15:38.299Z,26.58
2023-03-16T07:16:38.369Z,26.64
2023-03-16T07:17:38.162Z,26.68
2023-03-16T07:18:38.203Z,26.73
2023-03-16T07:19:38.192Z,26.78
2023-03-16T07:20:38.189Z,26.81
2023-03-16T07:21:38.183Z,26.84
2023-03-16T07:22:38.153Z,26.88
2023-03-16T07:23:38.163Z,26.92
2023-03-16T07:24:38.125Z,26.94
2023-03-16T07:25:38.118Z,26.97
2023-03-16T07:26:38.137Z,27.00
2023-03-16T07:27:38.138Z,27.04
2023-03-16T07:28:38.338Z,27.09
2023-03-16T07:29:38.089Z,27.11
2023-03-16T07:30:38.089Z,27.15
2023-03-16T07:31:38.118Z,27.17
2023-03-16T07:32:38.109Z,27.20
2023-03-16T07:33:38.070Z,27.21
2023-03-16T07:34:38.042Z,27.21
2023-03-16T07:35:38.134Z,27.19
2023-03-16T07:36:38.041Z,27.16
2023-03-16T07:37:38.024Z,27.14
2023-03-16T07:38:38.042Z,27.07
2023-03-16T07:39:38.076Z,26.96
2023-03-16T07:40:38.009Z,26.85
2023-03-16T07:41:37.992Z,26.81
2023-03-16T07:42:38.033Z,26.77
2023-03-16T07:43:38.042Z,26.76
2023-03-16T07:44:37.988Z,26.75
2023-03-16T07:45:38.007Z,26.78
2023-03-16T07:46:38.002Z,26.83
2023-03-16T07:47:37.967Z,26.85
2023-03-16T07:48:37.974Z,26.89
2023-03-16T07:49:37.938Z,26.94
2023-03-16T07:50:37.951Z,26.98
2023-03-16T07:51:37.937Z,27.01
2023-03-16T07:52:38.012Z,27.05
2023-03-16T07:53:37.937Z,27.08
2023-03-16T07:54:37.960Z,27.15
2023-03-16T07:55:37.987Z,27.20
2023-03-16T07:56:48.329Z,27.22
2023-03-16T07:57:39.034Z,27.25
2023-03-16T07:58:38.033Z,27.29
2023-03-16T07:59:38.006Z,27.35
2023-03-16T08:00:37.997Z,27.38
2023-03-16T08:01:37.996Z,27.42
2023-03-16T08:02:38.037Z,27.45
2023-03-16T08:03:38.142Z,27.49
2023-03-16T08:04:37.980Z,27.52
2023-03-16T08:05:37.942Z,27.53
2023-03-16T08:06:37.959Z,27.55
2023-03-16T08:07:37.996Z,27.55
2023-03-16T08:08:37.929Z,27.56
2023-03-16T08:09:37.953Z,27.59
2023-03-16T08:10:38.256Z,27.60
2023-03-16T08:11:37.961Z,27.62
2023-03-16T08:12:38.049Z,27.63
2023-03-16T08:13:37.934Z,27.63
2023-03-16T08:14:37.960Z,27.64
2023-03-16T08:15:38.269Z,27.60
2023-03-16T08:16:38.019Z,27.59
2023-03-16T08:17:38.090Z,27.58
2023-03-16T08:18:38.069Z,27.56
2023-03-16T08:19:38.078Z,27.55
2023-03-16T08:20:38.394Z,27.55
2023-03-16T08:21:48.836Z,27.52
2023-03-16T08:22:39.238Z,27.52
2023-03-16T08:23:38.095Z,27.52
2023-03-16T08:24:38.081Z,27.53
2023-03-16T08:25:38.068Z,27.53
2023-03-16T08:26:39.566Z,27.51
2023-03-16T08:27:38.059Z,27.50
2023-03-16T08:28:38.058Z,27.50
2023-03-16T08:29:38.044Z,27.50
2023-03-16T08:30:38.244Z,27.48
2023-03-16T08:31:38.115Z,27.48
2023-03-16T08:32:38.095Z,27.49
2023-03-16T08:33:38.011Z,27.49
2023-03-16T08:34:38.026Z,27.48
2023-03-16T08:35:38.363Z,27.49
2023-03-16T08:36:37.988Z,27.49
2023-03-16T08:37:38.004Z,27.50
2023-03-16T08:38:37.978Z,27.52
2023-03-16T08:39:37.981Z,27.50
2023-03-16T08:40:37.987Z,27.49
2023-03-16T08:41:38.255Z,27.49
2023-03-16T08:42:37.977Z,27.44
2023-03-16T08:43:37.998Z,27.38
2023-03-16T08:44:38.046Z,27.33
2023-03-16T08:45:38.042Z,27.29
2023-03-16T08:46:38.191Z,27.26
2023-03-16T08:47:38.157Z,27.21
2023-03-16T08:48:38.221Z,27.17
2023-03-16T08:49:38.257Z,27.17
2023-03-16T08:50:38.301Z,27.13
2023-03-16T08:51:38.248Z,27.12
2023-03-16T08:52:38.320Z,27.10
2023-03-16T08:53:38.323Z,27.09
2023-03-16T08:54:38.314Z,27.05
2023-03-16T08:55:38.312Z,27.02
2023-03-16T08:56:38.378Z,27.02
2023-03-16T08:57:38.386Z,27.03
2023-03-16T08:58:38.410Z,27.08
2023-03-16T08:59:38.476Z,27.09
2023-03-16T09:00:38.516Z,27.08
2023-03-16T09:01:38.636Z,27.07
2023-03-16T09:02:38.789Z,27.04
2023-03-16T09:03:38.580Z,27.00
2023-03-16T09:04:38.615Z,26.98
2023-03-16T09:05:38.585Z,26.94
2023-03-16T09:06:38.600Z,26.89
2023-03-16T09:07:38.562Z,26.88
2023-03-16T09:08:38.590Z,26.86
2023-03-16T09:09:38.617Z,26.82
2023-03-16T09:10:38.584Z,26.78
2023-03-16T09:11:38.624Z,26.75
2023-03-16T09:12:38.591Z,26.73
2023-03-16T09:13:38.632Z,26.73
2023-03-16T09:14:38.781Z,26.70
2023-03-16T09:15:38.631Z,26.67
2023-03-16T09:16:38.764Z,26.64
2023-03-16T09:17:38.675Z,26.63
2023-03-16T09:18:38.645Z,26.65
2023-03-16T09:19:50.963Z,26.64
2023-03-16T09:20:40.053Z,26.65
2023-03-16T09:21:38.665Z,26.64
2023-03-16T09:22:38.603Z,26.63
2023-03-16T09:23:38.635Z,26.61
2023-03-16T09:24:38.583Z,26.58
2023-03-16T09:25:38.595Z,26.54
2023-03-16T09:26:38.700Z,26.50
2023-03-16T09:27:38.605Z,26.44
2023-03-16T09:28:38.585Z,26.41
2023-03-16T09:29:38.607Z,26.37
2023-03-16T09:30:38.563Z,26.31
2023-03-16T09:31:38.835Z,26.29
2023-03-16T09:32:38.660Z,26.27
2023-03-16T09:38:38.541Z,26.20
2023-03-16T09:39:40.318Z,26.16
2023-03-16T09:40:38.496Z,26.14
2023-03-16T09:41:39.101Z,26.14
2023-03-16T09:42:38.543Z,26.11
2023-03-16T09:43:38.590Z,26.04
2023-03-16T09:44:38.668Z,26.04
2023-03-16T09:45:38.915Z,26.06
2023-03-16T09:46:38.805Z,26.09
2023-03-16T09:47:38.710Z,26.13
2023-03-16T09:48:38.741Z,26.16
2023-03-16T09:49:38.733Z,26.19
2023-03-16T09:50:48.468Z,26.23
2023-03-16T09:51:39.771Z,26.10
2023-03-16T09:52:38.727Z,25.67
2023-03-16T09:53:38.708Z,25.52
2023-03-16T09:54:38.725Z,25.54
2023-03-16T09:55:38.702Z,25.58
2023-03-16T09:56:38.743Z,25.65
2023-03-16T09:57:38.682Z,25.71
2023-03-16T09:58:38.685Z,25.78
2023-03-16T09:59:38.689Z,25.85
2023-03-16T10:00:38.690Z,25.91
2023-03-16T10:01:38.726Z,25.97
2023-03-16T10:02:38.747Z,26.04
2023-03-16T10:03:38.782Z,26.10
2023-03-16T10:04:38.791Z,26.17
2023-03-16T10:05:38.805Z,26.22
2023-03-16T10:06:38.802Z,26.27
2023-03-16T10:07:38.823Z,26.31
2023-03-16T10:08:38.829Z,26.34
2023-03-16T10:09:38.828Z,26.39
2023-03-16T10:10:38.824Z,26.41
2023-03-16T10:11:38.855Z,26.44
2023-03-16T10:12:38.839Z,26.47
2023-03-16T10:13:38.848Z,26.50
2023-03-16T10:14:38.931Z,26.54
2023-03-16T10:15:38.867Z,26.58
2023-03-16T10:16:38.907Z,26.61
2023-03-16T10:17:39.324Z,26.64
2023-03-16T10:18:38.961Z,26.71
2023-03-16T10:19:39.042Z,26.77
2023-03-16T10:20:39.108Z,26.83
2023-03-16T10:22:39.237Z,26.94
2023-03-16T10:23:40.936Z,26.97
2023-03-16T10:24:39.244Z,27.00
2023-03-16T10:25:39.349Z,27.04
2023-03-16T10:26:39.352Z,27.08
2023-03-16T10:27:39.378Z,27.12
2023-03-16T10:28:39.379Z,27.14
2023-03-16T10:29:39.405Z,27.17
2023-03-16T10:30:39.428Z,27.22
2023-03-16T10:31:39.505Z,27.26
2023-03-16T10:32:39.491Z,27.29
2023-03-16T10:33:39.614Z,27.33
2023-03-16T10:34:39.450Z,27.38
2023-03-16T10:35:39.478Z,27.39
2023-03-16T10:36:39.536Z,27.40
2023-03-16T10:37:39.492Z,27.44
2023-03-16T10:38:39.481Z,27.48
2023-03-16T10:39:39.585Z,27.50
2023-03-16T10:40:39.667Z,27.49
2023-03-16T10:41:39.749Z,27.49
2023-03-16T10:42:40.308Z,27.51
2023-03-16T10:43:39.886Z,27.46
2023-03-16T10:44:39.889Z,27.40
2023-03-16T10:45:39.949Z,27.28
2023-03-16T10:46:40.051Z,27.21
2023-03-16T10:47:40.311Z,27.16
2023-03-16T10:48:40.044Z,27.13
2023-03-16T10:49:40.074Z,27.12
2023-03-16T10:50:40.127Z,27.13
2023-03-16T10:51:40.191Z,27.15
2023-03-16T10:52:40.419Z,27.17
2023-03-16T10:53:40.310Z,27.20
2023-03-16T10:54:40.322Z,27.24
2023-03-16T10:55:40.373Z,27.28
2023-03-16T10:56:40.408Z,27.29
2023-03-16T10:58:40.524Z,27.34
2023-03-16T11:00:40.515Z,27.44
2023-03-16T11:01:40.577Z,27.47
2023-03-16T11:02:40.520Z,27.51
2023-03-16T11:03:40.536Z,27.55
2023-03-16T11:04:40.628Z,27.58
2023-03-16T11:05:40.693Z,27.61
2023-03-16T11:06:40.763Z,27.66
2023-03-16T11:08:40.807Z,27.75
2023-03-16T11:09:40.872Z,27.78
2023-03-16T11:10:54.726Z,27.82
2023-03-16T11:11:41.918Z,27.86
2023-03-16T11:12:41.338Z,27.90
2023-03-16T11:13:40.947Z,27.92
2023-03-16T11:14:40.909Z,27.95
2023-03-16T11:15:40.901Z,27.98
2023-03-16T11:16:40.955Z,28.01
2023-03-16T11:17:41.339Z,28.05
2023-03-16T11:18:40.961Z,28.07
2023-03-16T11:19:40.873Z,28.07
2023-03-16T11:20:40.845Z,28.08
2023-03-16T11:21:40.854Z,28.10
2023-03-16T11:23:40.967Z,28.13
2023-03-16T11:24:40.981Z,28.15
2023-03-16T11:26:41.069Z,28.18
2023-03-16T11:28:41.102Z,28.25
2023-03-16T11:37:41.945Z,28.34
2023-03-16T11:48:41.708Z,26.26
2023-03-16T11:49:42.081Z,26.31
2023-03-16T11:50:41.783Z,26.36
2023-03-16T11:51:42.350Z,26.39
2023-03-16T11:52:41.913Z,26.39
2023-03-16T11:53:41.945Z,26.41
2023-03-16T11:54:42.015Z,26.44
2023-03-16T11:55:42.079Z,26.45
2023-03-16T11:56:42.077Z,26.46
2023-03-16T11:57:42.096Z,26.43
2023-03-16T11:58:42.134Z,26.37
2023-03-16T11:59:46.299Z,26.36
2023-03-16T12:00:43.111Z,26.35
2023-03-16T12:01:47.726Z,26.33
2023-03-16T12:02:43.220Z,26.29
2023-03-16T12:03:42.376Z,26.25
2023-03-16T12:04:42.121Z,26.22
2023-03-16T12:05:43.394Z,26.20
2023-03-16T12:06:42.082Z,26.18
2023-03-16T12:07:42.092Z,26.16
2023-03-16T12:08:42.065Z,26.13
2023-03-16T12:09:42.069Z,26.11
2023-03-16T12:10:42.118Z,26.08
2023-03-16T12:11:42.096Z,26.02
2023-03-16T12:12:42.053Z,25.98
2023-03-16T12:13:42.050Z,25.94
2023-03-16T12:14:42.036Z,25.87
2023-03-16T12:15:42.064Z,25.78
2023-03-16T12:16:49.113Z,25.71
2023-03-16T12:17:43.121Z,25.66
2023-03-16T12:18:42.358Z,25.61
2023-03-16T12:19:42.076Z,25.57
2023-03-16T12:20:42.095Z,25.55
2023-03-16T12:21:42.074Z,25.50
2023-03-16T12:22:42.097Z,25.49
2023-03-16T12:23:42.042Z,25.46
2023-03-16T12:24:42.036Z,25.45
2023-03-16T12:25:42.031Z,25.44
2023-03-16T12:26:42.026Z,25.40
2023-03-16T12:27:42.025Z,25.39
2023-03-16T12:28:42.040Z,25.38
2023-03-16T12:29:42.049Z,25.39
2023-03-16T12:30:42.036Z,25.37
2023-03-16T12:31:42.108Z,25.34
2023-03-16T12:32:42.171Z,25.32
2023-03-16T12:33:42.361Z,25.30
2023-03-16T12:34:42.168Z,25.30
2023-03-16T12:35:42.211Z,25.27
2023-03-16T12:36:42.241Z,25.25
2023-03-16T12:37:42.237Z,25.23
2023-03-16T12:38:42.412Z,25.23
2023-03-16T12:39:42.260Z,25.22
2023-03-16T12:40:42.244Z,25.22
2023-03-16T12:41:42.252Z,25.21
2023-03-16T12:42:42.323Z,25.25
2023-03-16T12:43:42.362Z,25.27
2023-03-16T12:44:42.454Z,25.30
2023-03-16T12:45:42.521Z,25.33
2023-03-16T12:46:42.480Z,25.38
2023-03-16T12:47:42.468Z,25.42
2023-03-16T12:48:42.473Z,25.46
2023-03-16T12:49:42.488Z,25.50
2023-03-16T12:50:42.546Z,25.53
2023-03-16T12:51:42.649Z,25.56
2023-03-16T12:52:42.661Z,25.60
2023-03-16T12:53:42.726Z,25.64
2023-03-16T12:54:42.750Z,25.68
2023-03-16T12:55:42.833Z,25.71
2023-03-16T12:56:42.862Z,25.74
2023-03-16T12:57:42.929Z,25.78
2023-03-16T12:58:42.945Z,25.81
2023-03-16T12:59:43.135Z,25.83
2023-03-16T13:00:43.069Z,25.87
2023-03-16T13:01:43.026Z,25.89
2023-03-16T13:02:43.074Z,25.92
2023-03-16T13:03:43.084Z,25.94
2023-03-16T13:04:43.128Z,25.96
2023-03-16T13:05:43.089Z,25.99
2023-03-16T13:06:43.100Z,25.99
2023-03-16T13:07:43.107Z,26.00
2023-03-16T13:08:43.111Z,25.98
2023-03-16T13:09:43.139Z,25.96
2023-03-16T13:10:43.171Z,25.95
2023-03-16T13:11:43.247Z,25.92
2023-03-16T13:12:43.300Z,25.88
2023-03-16T13:13:43.348Z,25.86
2023-03-16T13:14:43.357Z,25.84
2023-03-16T13:15:43.385Z,25.83
2023-03-16T13:16:43.486Z,25.78
2023-03-16T13:17:43.446Z,25.75
2023-03-16T13:18:43.445Z,25.73
2023-03-16T13:19:43.440Z,25.72
2023-03-16T13:20:43.454Z,25.71
2023-03-16T13:21:43.470Z,25.71
2023-03-16T13:22:43.516Z,25.73
2023-03-16T13:23:43.597Z,25.74
2023-03-16T13:24:43.664Z,25.75
2023-03-16T13:25:43.721Z,25.78
2023-03-16T13:26:43.752Z,25.79
2023-03-16T13:27:43.803Z,25.81
2023-03-16T13:28:43.832Z,25.83
2023-03-16T13:29:43.873Z,25.87
2023-03-16T13:30:43.903Z,25.87
2023-03-16T13:31:44.000Z,25.83
2023-03-16T13:32:44.026Z,25.76
2023-03-16T13:33:44.047Z,25.73
2023-03-16T13:34:44.097Z,25.70
2023-03-16T13:35:44.212Z,25.70
2023-03-16T13:36:44.221Z,25.70
2023-03-16T13:37:44.260Z,25.70
2023-03-16T13:38:44.299Z,25.71
2023-03-16T13:39:44.348Z,25.72
2023-03-16T13:40:44.412Z,25.72
2023-03-16T13:41:44.464Z,25.73
2023-03-16T13:42:44.476Z,25.74
2023-03-16T13:43:44.528Z,25.75
2023-03-16T13:44:44.610Z,25.77
2023-03-16T13:45:44.599Z,25.79